createdAt,value
2017-07-09T00:02:20.421Z,12.13
2017-07-09T00:04:47.061Z,12.10
2017-07-09T00:07:13.771Z,14.83
2017-07-09T00:09:40.427Z,15.07
2017-07-09T00:12:07.095Z,13.70
2017-07-09T00:14:33.804Z,12.73
2017-07-09T00:17:00.460Z,17.30
2017-07-09T00:19:27.106Z,14.23
2017-07-09T00:21:53.828Z,14.77
2017-07-09T00:24:20.486Z,16.33
2017-07-09T00:26:47.154Z,14.50
2017-07-09T00:29:13.839Z,14.83
2017-07-09T00:31:40.547Z,14.87
2017-07-09T00:34:07.196Z,13.10
2017-07-09T00:36:33.840Z,15.60
2017-07-09T00:39:00.500Z,17.60
2017-07-09T00:41:27.157Z,20.53
2017-07-09T00:43:53.867Z,13.83
2017-07-09T00:46:20.536Z,19.77
2017-07-09T00:48:47.173Z,16.63
2017-07-09T00:51:13.840Z,15.47
2017-07-09T00:53:40.542Z,16.07
2017-07-09T00:56:07.198Z,15.67
2017-07-09T00:58:33.864Z,16.17
2017-07-09T01:01:00.567Z,17.53
2017-07-09T01:03:27.230Z,16.80
2017-07-09T01:05:53.902Z,16.07
2017-07-09T01:08:20.576Z,14.47
2017-07-09T01:10:47.252Z,15.67
2017-07-09T01:13:13.920Z,13.47
2017-07-09T01:15:40.601Z,14.30
2017-07-09T01:18:07.245Z,12.27
2017-07-09T01:20:33.907Z,16.00
2017-07-09T01:23:00.590Z,15.40
2017-07-09T01:25:27.261Z,13.20
2017-07-09T01:27:53.947Z,15.13
2017-07-09T01:30:20.640Z,19.23
2017-07-09T01:32:47.311Z,13.77
2017-07-09T01:35:13.991Z,15.33
2017-07-09T01:37:40.697Z,13.30
2017-07-09T01:40:07.369Z,13.00
2017-07-09T01:42:34.080Z,15.40
2017-07-09T01:45:00.757Z,17.27
2017-07-09T01:47:27.400Z,13.23
2017-07-09T01:49:54.058Z,12.30
2017-07-09T01:52:20.755Z,14.23
2017-07-09T01:54:47.404Z,11.30
2017-07-09T01:57:14.062Z,14.43
2017-07-09T01:59:40.751Z,12.17
2017-07-09T02:02:07.416Z,13.67
2017-07-09T02:04:34.080Z,9.53
2017-07-09T02:07:00.750Z,9.23
2017-07-09T02:09:27.412Z,11.13
2017-07-09T02:11:54.053Z,9.87
2017-07-09T02:14:20.726Z,10.30
2017-07-09T02:16:47.383Z,9.60
2017-07-09T02:19:14.043Z,8.97
2017-07-09T02:21:40.737Z,8.97
2017-07-09T02:24:07.377Z,13.40
2017-07-09T02:26:34.013Z,10.47
2017-07-09T02:29:00.706Z,9.57
2017-07-09T02:31:27.365Z,9.13
2017-07-09T02:33:54.008Z,10.27
2017-07-09T02:36:20.682Z,10.40
2017-07-09T02:38:47.362Z,11.40
2017-07-09T02:41:14.026Z,12.50
2017-07-09T02:43:40.683Z,15.50
2017-07-09T02:46:07.387Z,17.40
2017-07-09T02:48:34.047Z,14.80
2017-07-09T02:51:00.703Z,17.03
2017-07-09T02:53:27.419Z,17.20
2017-07-09T02:55:54.064Z,14.70
2017-07-09T02:58:20.717Z,14.30
2017-07-09T03:00:47.376Z,14.93
2017-07-09T03:03:14.039Z,18.10
2017-07-09T03:05:40.711Z,14.33
2017-07-09T03:08:07.387Z,15.07
2017-07-09T03:10:34.068Z,16.77
2017-07-09T03:13:00.728Z,16.47
2017-07-09T03:15:27.392Z,17.97
2017-07-09T03:17:54.056Z,17.00
2017-07-09T03:20:20.723Z,17.57
2017-07-09T03:22:47.454Z,18.97
2017-07-09T03:25:14.123Z,18.77
2017-07-09T03:27:40.791Z,16.60
2017-07-09T03:30:07.624Z,16.37
2017-07-09T03:32:34.270Z,17.10
2017-07-09T03:35:00.951Z,16.63
2017-07-09T03:37:27.640Z,19.30
2017-07-09T03:39:54.303Z,23.23
2017-07-09T03:42:21.020Z,17.13
2017-07-09T03:44:47.707Z,21.70
2017-07-09T03:47:14.373Z,16.80
2017-07-09T03:49:41.031Z,19.63
2017-07-09T03:52:07.708Z,25.00
2017-07-09T03:54:34.363Z,28.37
2017-07-09T03:57:01.099Z,20.63
2017-07-09T03:59:27.819Z,24.20
2017-07-09T04:01:54.487Z,20.43
2017-07-09T04:04:21.155Z,22.10
2017-07-09T04:06:47.844Z,23.07
2017-07-09T04:09:14.513Z,23.07
2017-07-09T04:11:41.171Z,26.47
2017-07-09T04:14:07.832Z,23.20
2017-07-09T04:16:34.477Z,25.77
2017-07-09T04:19:01.164Z,24.63
2017-07-09T04:21:27.834Z,23.80
2017-07-09T04:23:54.498Z,20.80
2017-07-09T04:26:21.166Z,24.03
2017-07-09T04:28:47.822Z,24.00
2017-07-09T04:31:14.472Z,25.13
2017-07-09T04:33:41.140Z,22.30
2017-07-09T04:36:07.799Z,25.83
2017-07-09T04:38:34.468Z,23.27
2017-07-09T04:41:01.150Z,25.33
2017-07-09T04:43:27.819Z,27.20
2017-07-09T04:45:54.488Z,29.23
2017-07-09T04:48:21.226Z,27.97
2017-07-09T04:50:47.898Z,23.50
2017-07-09T04:53:14.546Z,23.07
2017-07-09T04:55:41.259Z,29.43
2017-07-09T04:58:07.902Z,23.30
2017-07-09T05:00:34.563Z,24.00
2017-07-09T05:03:01.239Z,26.67
2017-07-09T05:05:27.893Z,25.90
2017-07-09T05:07:54.548Z,28.00
2017-07-09T05:10:21.208Z,19.00
2017-07-09T05:12:47.854Z,21.90
2017-07-09T05:15:14.500Z,19.50
2017-07-09T05:17:41.164Z,20.60
2017-07-09T05:20:07.828Z,23.17
2017-07-09T05:22:34.475Z,24.93
2017-07-09T05:25:01.155Z,21.00
2017-07-09T05:27:27.791Z,26.53
2017-07-09T05:29:54.437Z,19.23
2017-07-09T05:32:21.139Z,20.87
2017-07-09T05:34:47.780Z,21.10
2017-07-09T05:37:14.427Z,21.47
2017-07-09T05:39:41.161Z,21.00
2017-07-09T05:42:07.806Z,21.20
2017-07-09T05:44:34.458Z,17.73
2017-07-09T05:47:01.119Z,16.07
2017-07-09T05:49:27.761Z,14.80
2017-07-09T05:51:54.428Z,19.00
2017-07-09T05:54:21.098Z,14.93
2017-07-09T05:56:47.760Z,14.20
2017-07-09T05:59:14.421Z,13.70
2017-07-09T06:01:41.103Z,12.50
2017-07-09T06:04:07.772Z,13.90
2017-07-09T06:06:34.412Z,10.10
2017-07-09T06:09:01.072Z,9.23
2017-07-09T06:11:27.718Z,9.87
2017-07-09T06:13:54.377Z,8.30
2017-07-09T06:16:21.039Z,9.10
2017-07-09T06:18:47.769Z,7.10
2017-07-09T06:21:14.423Z,7.50
2017-07-09T06:23:41.083Z,6.70
2017-07-09T06:26:07.791Z,9.17
2017-07-09T06:28:34.443Z,7.20
2017-07-09T06:31:01.100Z,7.07
2017-07-09T06:33:27.834Z,5.17
2017-07-09T06:35:54.485Z,8.20
2017-07-09T06:38:21.134Z,4.70
2017-07-09T06:40:47.806Z,3.93
2017-07-09T06:43:14.459Z,4.00
2017-07-09T06:45:41.120Z,5.07
2017-07-09T06:48:07.812Z,4.13
2017-07-09T06:50:34.452Z,4.93
2017-07-09T06:53:01.134Z,4.60
2017-07-09T06:55:27.815Z,5.07
2017-07-09T06:57:54.468Z,4.30
2017-07-09T07:00:21.123Z,4.83
2017-07-09T07:02:47.851Z,4.30
2017-07-09T07:05:14.545Z,7.33
2017-07-09T07:07:41.185Z,3.73
2017-07-09T07:10:07.840Z,4.40
2017-07-09T07:12:34.481Z,6.30
2017-07-09T07:15:01.131Z,3.93
2017-07-09T07:17:27.842Z,3.93
2017-07-09T07:19:54.499Z,4.87
2017-07-09T07:22:21.158Z,4.50
2017-07-09T07:24:47.830Z,3.90
2017-07-09T07:27:14.465Z,3.73
2017-07-09T07:29:41.110Z,4.77
2017-07-09T07:32:07.827Z,4.57
2017-07-09T07:34:34.461Z,4.20
2017-07-09T07:37:01.107Z,3.07
2017-07-09T07:39:27.769Z,4.80
2017-07-09T07:41:54.404Z,3.63
2017-07-09T07:44:21.040Z,3.67
2017-07-09T07:46:47.705Z,5.83
2017-07-09T07:49:14.338Z,2.60
2017-07-09T07:51:40.992Z,5.03
2017-07-09T07:54:07.704Z,3.10
2017-07-09T07:56:34.344Z,3.27
2017-07-09T07:59:00.995Z,3.20
2017-07-09T08:01:28.157Z,4.17
2017-07-09T08:03:54.847Z,2.90
2017-07-09T08:06:21.526Z,3.40
2017-07-09T08:08:48.199Z,2.50
2017-07-09T08:11:14.879Z,3.43
2017-07-09T08:13:41.606Z,2.93
2017-07-09T08:16:08.262Z,6.10
2017-07-09T08:18:34.919Z,1.87
2017-07-09T08:21:01.609Z,2.97
2017-07-09T08:23:28.277Z,6.07
2017-07-09T08:25:54.941Z,2.40
2017-07-09T08:28:21.687Z,2.90
2017-07-09T08:30:48.387Z,2.50
2017-07-09T08:33:15.044Z,4.67
2017-07-09T08:35:41.680Z,5.43
2017-07-09T08:38:08.431Z,1.73
2017-07-09T08:40:35.081Z,1.90
2017-07-09T08:43:01.733Z,3.93
2017-07-09T08:45:28.419Z,4.00
2017-07-09T08:47:55.076Z,3.37
2017-07-09T08:50:21.728Z,2.30
2017-07-09T08:52:48.443Z,2.70
2017-07-09T08:55:15.083Z,3.53
2017-07-09T08:57:41.767Z,2.60
2017-07-09T09:00:08.443Z,2.20
2017-07-09T09:02:35.085Z,1.90
2017-07-09T09:05:01.720Z,2.53
2017-07-09T09:07:28.423Z,1.90
2017-07-09T09:09:55.069Z,2.27
2017-07-09T09:12:21.716Z,6.20
2017-07-09T09:14:48.423Z,1.60
2017-07-09T09:17:15.075Z,3.00
2017-07-09T09:19:41.717Z,4.07
2017-07-09T09:22:08.436Z,1.70
2017-07-09T09:24:35.074Z,1.90
2017-07-09T09:27:01.708Z,4.80
2017-07-09T09:29:28.379Z,1.90
2017-07-09T09:31:55.098Z,2.10
2017-07-09T09:34:21.751Z,1.67
2017-07-09T09:36:48.455Z,1.60
2017-07-09T09:39:15.140Z,1.60
2017-07-09T09:41:41.823Z,2.60
2017-07-09T09:44:08.510Z,2.07
2017-07-09T09:46:35.167Z,3.20
2017-07-09T09:49:01.838Z,4.43
2017-07-09T09:51:28.559Z,7.93
2017-07-09T09:53:55.200Z,1.83
2017-07-09T09:56:21.837Z,1.70
2017-07-09T09:58:48.550Z,2.10
2017-07-09T10:01:15.211Z,1.67
2017-07-09T10:03:41.846Z,2.20
2017-07-09T10:06:08.558Z,3.67
2017-07-09T10:08:35.192Z,1.80
2017-07-09T10:11:01.842Z,3.20
2017-07-09T10:13:28.530Z,1.87
2017-07-09T10:15:55.220Z,1.60
2017-07-09T10:18:21.890Z,2.67
2017-07-09T10:20:48.603Z,2.17
2017-07-09T10:23:15.256Z,1.80
2017-07-09T10:25:41.907Z,2.20
2017-07-09T10:28:08.584Z,1.90
2017-07-09T10:30:35.224Z,2.80
2017-07-09T10:33:01.870Z,1.77
2017-07-09T10:35:28.587Z,1.77
2017-07-09T10:37:55.233Z,1.77
2017-07-09T10:40:21.869Z,2.73
2017-07-09T10:42:48.536Z,3.13
2017-07-09T10:45:15.176Z,2.13
2017-07-09T10:47:41.829Z,1.90
2017-07-09T10:50:08.563Z,1.50
2017-07-09T10:52:35.221Z,3.03
2017-07-09T10:55:01.863Z,4.47
2017-07-09T10:57:28.517Z,2.90
2017-07-09T10:59:55.156Z,1.77
2017-07-09T11:02:21.793Z,1.97
2017-07-09T11:04:48.442Z,3.03
2017-07-09T11:07:15.103Z,1.63
2017-07-09T11:09:41.773Z,3.53
2017-07-09T11:12:08.441Z,4.87
2017-07-09T11:14:35.098Z,2.70
2017-07-09T11:17:01.758Z,1.90
2017-07-09T11:19:28.425Z,2.27
2017-07-09T11:21:55.062Z,1.90
2017-07-09T11:24:21.701Z,1.90
2017-07-09T11:26:48.379Z,1.83
2017-07-09T11:29:15.037Z,1.60
2017-07-09T11:31:41.699Z,1.60
2017-07-09T11:34:08.404Z,1.77
2017-07-09T11:36:35.037Z,1.97
2017-07-09T11:39:01.706Z,1.70
2017-07-09T11:41:28.364Z,2.00
2017-07-09T11:43:55.004Z,1.57
2017-07-09T11:46:21.639Z,2.37
2017-07-09T11:48:48.362Z,3.37
2017-07-09T11:51:14.999Z,1.90
2017-07-09T11:53:41.637Z,1.73
2017-07-09T11:56:08.329Z,1.60
2017-07-09T11:58:34.964Z,2.20
2017-07-09T12:01:01.600Z,1.60
2017-07-09T12:03:28.298Z,1.70
2017-07-09T12:05:54.937Z,1.37
2017-07-09T12:08:21.596Z,1.70
2017-07-09T12:10:48.285Z,2.10
2017-07-09T12:13:14.951Z,3.97
2017-07-09T12:15:41.613Z,2.53
2017-07-09T12:18:08.300Z,3.90
2017-07-09T12:20:34.937Z,1.63
2017-07-09T12:23:01.580Z,1.70
2017-07-09T12:25:28.228Z,1.90
2017-07-09T12:27:54.891Z,1.83
2017-07-09T12:30:21.539Z,1.70
2017-07-09T12:32:48.219Z,2.07
2017-07-09T12:35:14.879Z,1.90
2017-07-09T12:37:41.534Z,1.90
2017-07-09T12:40:08.191Z,2.20
2017-07-09T12:42:34.821Z,2.47
2017-07-09T12:45:01.663Z,1.60
2017-07-09T12:47:28.326Z,1.57
2017-07-09T12:49:55.003Z,2.07
2017-07-09T12:52:21.656Z,1.50
2017-07-09T12:54:48.318Z,1.57
2017-07-09T12:57:14.956Z,1.87
2017-07-09T12:59:41.639Z,1.50
2017-07-09T13:02:08.284Z,1.50
2017-07-09T13:04:34.924Z,2.50
2017-07-09T13:07:01.601Z,1.50
2017-07-09T13:09:28.239Z,1.63
2017-07-09T13:11:54.874Z,2.40
2017-07-09T13:14:21.552Z,1.83
2017-07-09T13:16:48.214Z,1.60
2017-07-09T13:19:14.856Z,2.20
2017-07-09T13:21:41.568Z,2.10
2017-07-09T13:24:08.242Z,1.70
2017-07-09T13:26:34.913Z,1.50
2017-07-09T13:29:01.583Z,1.67
2017-07-09T13:31:28.217Z,1.53
2017-07-09T13:33:54.858Z,1.40
2017-07-09T13:36:21.535Z,1.80
2017-07-09T13:38:48.207Z,3.03
2017-07-09T13:41:14.848Z,2.50
2017-07-09T13:43:42.016Z,2.07
2017-07-09T13:46:08.697Z,3.23
2017-07-09T13:48:35.344Z,5.10
2017-07-09T13:51:02.072Z,1.60
2017-07-09T13:53:28.739Z,1.93
2017-07-09T13:55:55.415Z,1.40
2017-07-09T13:58:22.102Z,1.53
2017-07-09T14:00:48.745Z,1.37
2017-07-09T14:03:15.380Z,1.90
2017-07-09T14:05:42.076Z,1.60
2017-07-09T14:08:08.730Z,1.63
2017-07-09T14:10:35.378Z,1.40
2017-07-09T14:13:02.065Z,4.07
2017-07-09T14:15:28.728Z,2.53
2017-07-09T14:17:55.391Z,5.30
2017-07-09T14:20:22.047Z,3.40
2017-07-09T14:22:48.688Z,1.47
2017-07-09T14:25:15.351Z,1.80
2017-07-09T14:27:42.004Z,1.50
2017-07-09T14:30:08.632Z,1.93
2017-07-09T14:32:35.268Z,2.70
2017-07-09T14:35:01.965Z,1.30
2017-07-09T14:37:28.636Z,1.37
2017-07-09T14:39:55.275Z,3.43
2017-07-09T14:42:21.985Z,5.53
2017-07-09T14:44:48.642Z,4.93
2017-07-09T14:47:15.291Z,2.23
2017-07-09T14:49:41.968Z,4.83
2017-07-09T14:52:08.643Z,2.80
2017-07-09T14:54:35.315Z,1.40
2017-07-09T14:57:02.000Z,1.47
2017-07-09T14:59:28.640Z,1.40
2017-07-09T15:01:55.306Z,1.60
2017-07-09T15:04:21.961Z,1.53
2017-07-09T15:06:48.617Z,5.33
2017-07-09T15:09:15.275Z,7.00
2017-07-09T15:11:41.978Z,1.60
2017-07-09T15:14:08.623Z,2.80
2017-07-09T15:16:35.344Z,1.60
2017-07-09T15:19:02.034Z,1.67
2017-07-09T15:21:28.695Z,3.93
2017-07-09T15:23:55.339Z,3.87
2017-07-09T15:26:22.022Z,4.43
2017-07-09T15:28:48.680Z,3.07
2017-07-09T15:31:15.335Z,6.70
2017-07-09T15:33:42.047Z,2.80
2017-07-09T15:36:08.706Z,5.50
2017-07-09T15:38:35.364Z,2.50
2017-07-09T15:41:02.019Z,4.20
2017-07-09T15:43:28.657Z,6.70
2017-07-09T15:45:55.320Z,11.13
2017-07-09T15:48:22.036Z,4.20
2017-07-09T15:50:48.708Z,5.77
2017-07-09T15:53:15.353Z,2.67
2017-07-09T15:55:42.535Z,4.10
2017-07-09T15:58:10.025Z,4.43
2017-07-09T16:00:36.679Z,1.93
2017-07-09T16:03:03.359Z,2.20
2017-07-09T16:05:30.006Z,1.60
2017-07-09T16:07:56.676Z,2.20
2017-07-09T16:10:23.351Z,5.43
2017-07-09T16:12:49.994Z,3.63
2017-07-09T16:15:16.663Z,3.40
2017-07-09T16:17:43.352Z,3.00
2017-07-09T16:20:10.007Z,4.43
2017-07-09T16:22:36.646Z,2.43
2017-07-09T16:25:03.311Z,4.73
2017-07-09T16:27:29.955Z,6.20
2017-07-09T16:29:56.606Z,3.80
2017-07-09T16:32:23.286Z,4.90
2017-07-09T16:34:49.950Z,4.00
2017-07-09T16:37:16.699Z,2.00
2017-07-09T16:39:43.341Z,12.40
2017-07-09T16:42:10.003Z,2.87
2017-07-09T16:44:36.720Z,1.90
2017-07-09T16:47:03.347Z,1.53
2017-07-09T16:49:30.020Z,1.77
2017-07-09T16:51:56.713Z,5.57
2017-07-09T16:54:23.352Z,4.03
2017-07-09T16:56:50.014Z,8.13
2017-07-09T16:59:16.689Z,4.27
2017-07-09T17:01:43.345Z,3.10
2017-07-09T17:04:09.998Z,1.90
2017-07-09T17:06:36.747Z,6.13
2017-07-09T17:09:03.411Z,5.93
2017-07-09T17:11:30.057Z,3.63
2017-07-09T17:13:56.775Z,2.43
2017-07-09T17:16:23.423Z,4.37
2017-07-09T17:18:50.082Z,3.43
2017-07-09T17:21:16.732Z,9.87
2017-07-09T17:23:43.403Z,14.43
2017-07-09T17:26:10.111Z,3.40
2017-07-09T17:28:36.796Z,3.03
2017-07-09T17:31:03.458Z,5.47
2017-07-09T17:33:30.163Z,5.30
2017-07-09T17:35:56.852Z,6.30
2017-07-09T17:38:23.576Z,3.80
2017-07-09T17:40:50.265Z,7.73
2017-07-09T17:43:16.908Z,8.07
2017-07-09T17:45:43.568Z,14.03
2017-07-09T17:48:10.221Z,4.20
2017-07-09T17:50:36.857Z,2.50
2017-07-09T17:53:03.607Z,5.60
2017-07-09T17:55:30.255Z,2.40
2017-07-09T17:57:56.935Z,2.87
2017-07-09T18:00:23.652Z,1.50
2017-07-09T18:02:50.298Z,13.27
2017-07-09T18:05:16.954Z,7.07
2017-07-09T18:07:43.650Z,6.47
2017-07-09T18:10:10.326Z,7.57
2017-07-09T18:12:37.005Z,3.83
2017-07-09T18:15:03.662Z,6.63
2017-07-09T18:17:30.327Z,4.20
2017-07-09T18:19:57.043Z,1.70
2017-07-09T18:22:23.680Z,2.70
2017-07-09T18:24:50.343Z,4.37
2017-07-09T18:27:17.008Z,4.37
2017-07-09T18:29:43.656Z,5.57
2017-07-09T18:32:10.296Z,2.10
2017-07-09T18:34:36.984Z,8.33
2017-07-09T18:37:03.619Z,1.93
2017-07-09T18:39:30.266Z,3.10
2017-07-09T18:41:56.967Z,2.27
2017-07-09T18:44:23.619Z,2.70
2017-07-09T18:46:50.251Z,5.47
2017-07-09T18:49:16.910Z,2.00
2017-07-09T18:51:43.563Z,1.80
2017-07-09T18:54:10.214Z,1.77
2017-07-09T18:56:36.935Z,2.20
2017-07-09T18:59:03.576Z,5.30
2017-07-09T19:01:30.245Z,2.17
2017-07-09T19:03:56.937Z,2.00
2017-07-09T19:06:23.618Z,3.63
2017-07-09T19:08:50.297Z,2.10
2017-07-09T19:11:16.965Z,1.63
2017-07-09T19:13:43.659Z,3.03
2017-07-09T19:16:10.302Z,3.37
2017-07-09T19:18:36.971Z,2.50
2017-07-09T19:21:03.650Z,1.93
2017-07-09T19:23:30.300Z,2.03
2017-07-09T19:25:56.932Z,4.87
2017-07-09T19:28:23.629Z,6.03
2017-07-09T19:30:50.277Z,6.00
2017-07-09T19:33:16.949Z,1.80
2017-07-09T19:35:43.643Z,3.50
2017-07-09T19:38:10.311Z,3.97
2017-07-09T19:40:36.976Z,4.17
2017-07-09T19:43:03.680Z,4.30
2017-07-09T19:45:30.330Z,1.70
2017-07-09T19:47:57.008Z,2.00
2017-07-09T19:50:23.688Z,2.03
2017-07-09T19:52:50.354Z,2.20
2017-07-09T19:55:17.001Z,7.30
2017-07-09T19:57:43.671Z,4.23
2017-07-09T20:00:10.306Z,1.70
2017-07-09T20:02:36.951Z,2.20
2017-07-09T20:05:03.651Z,3.73
2017-07-09T20:07:30.314Z,3.87
2017-07-09T20:09:57.140Z,6.13
2017-07-09T20:12:23.780Z,2.70
2017-07-09T20:14:50.415Z,2.87
2017-07-09T20:17:17.095Z,8.03
2017-07-09T20:19:43.795Z,5.50
2017-07-09T20:22:10.462Z,1.80
2017-07-09T20:24:37.180Z,2.07
2017-07-09T20:27:03.829Z,2.17
2017-07-09T20:29:30.494Z,2.97
2017-07-09T20:31:57.148Z,1.97
2017-07-09T20:34:23.790Z,2.00
2017-07-09T20:36:50.451Z,2.73
2017-07-09T20:39:17.087Z,2.40
2017-07-09T20:41:43.743Z,2.50
2017-07-09T20:44:10.458Z,2.50
2017-07-09T20:46:37.104Z,1.60
2017-07-09T20:49:03.789Z,2.10
2017-07-09T20:51:30.427Z,2.10
2017-07-09T20:53:57.139Z,1.90
2017-07-09T20:56:23.795Z,2.60
2017-07-09T20:58:50.450Z,2.10
2017-07-09T21:01:17.127Z,1.83
2017-07-09T21:03:43.802Z,24.70
2017-07-09T21:06:10.467Z,3.10
2017-07-09T21:08:37.147Z,3.63
2017-07-09T21:11:03.800Z,2.20
2017-07-09T21:13:30.485Z,2.53
2017-07-09T21:15:57.168Z,2.10
2017-07-09T21:18:23.947Z,1.90
2017-07-09T21:20:51.314Z,1.73
2017-07-09T21:23:17.980Z,2.10
2017-07-09T21:25:44.640Z,2.10
2017-07-09T21:28:11.292Z,2.10
2017-07-09T21:30:38.008Z,2.13
2017-07-09T21:33:04.736Z,2.55
2017-07-09T21:35:31.393Z,2.03
2017-07-09T21:37:58.047Z,2.00
2017-07-09T21:40:24.720Z,2.73
2017-07-09T21:42:51.371Z,2.00
2017-07-09T21:45:18.026Z,2.87
2017-07-09T21:47:44.713Z,2.60
2017-07-09T21:50:11.423Z,2.90
2017-07-09T21:52:38.102Z,2.87
2017-07-09T21:55:05.683Z,2.83
2017-07-09T21:57:32.411Z,2.00
2017-07-09T21:59:59.064Z,3.43
2017-07-09T22:02:25.712Z,5.50
2017-07-09T22:04:52.388Z,2.37
2017-07-09T22:07:19.153Z,3.20
2017-07-09T22:09:45.804Z,1.70
2017-07-09T22:12:12.461Z,1.90
2017-07-09T22:14:39.139Z,5.73
2017-07-09T22:17:05.773Z,2.10
2017-07-09T22:19:32.413Z,2.63
2017-07-09T22:21:59.069Z,2.33
2017-07-09T22:24:25.755Z,4.27
2017-07-09T22:26:52.414Z,2.00
2017-07-09T22:29:19.071Z,1.80
2017-07-09T22:31:45.727Z,4.03
2017-07-09T22:34:12.393Z,2.97
2017-07-09T22:36:39.027Z,2.43
2017-07-09T22:39:05.739Z,4.00
2017-07-09T22:41:32.391Z,6.27
2017-07-09T22:43:59.039Z,2.00
2017-07-09T22:46:25.780Z,2.13
2017-07-09T22:48:52.419Z,2.20
2017-07-09T22:51:19.052Z,2.37
2017-07-09T22:53:45.746Z,2.60
2017-07-09T22:56:12.413Z,2.50
2017-07-09T22:58:39.052Z,6.40
2017-07-09T23:01:05.745Z,3.17
2017-07-09T23:03:32.399Z,2.60
2017-07-09T23:05:59.061Z,2.40
2017-07-09T23:08:25.718Z,1.90
2017-07-09T23:10:52.361Z,2.07
2017-07-09T23:13:19.051Z,2.07
2017-07-09T23:15:45.797Z,3.43
2017-07-09T23:18:12.436Z,2.20
2017-07-09T23:20:39.091Z,3.40
2017-07-09T23:23:05.742Z,4.07
2017-07-09T23:25:32.393Z,2.10
2017-07-09T23:27:59.059Z,3.80
2017-07-09T23:30:25.711Z,3.47
2017-07-09T23:32:52.346Z,3.10
2017-07-09T23:35:19.050Z,2.73
2017-07-09T23:37:45.689Z,2.60
2017-07-09T23:40:12.320Z,2.23
2017-07-09T23:42:38.997Z,2.67
2017-07-09T23:45:05.643Z,2.30
2017-07-09T23:47:32.315Z,2.57
2017-07-09T23:49:59.016Z,3.93
2017-07-09T23:52:25.652Z,3.60
2017-07-09T23:54:52.293Z,3.40
2017-07-09T23:57:19.007Z,2.97
2017-07-09T23:59:45.648Z,2.73
